Sign in

Advertise on goboko.com

You can reach many thousands of active pilots each month by advertising on goboko.com.

Please contact us for details.

Advertising

Info

Aviation weather - KJYO

METAR KJYO 220115Z AUTO 00000KT 7SM -RA OVC060 12/12 A2993 RMK AO2

TAF KIAD 202334Z 2100/2206 18005KT P6SM VCSH OVC040 TEMPO 2101/2103 -SHRA FM211100 00000KT P6SM BKN050 FM212100 30006KT P6SM BKN035

ADDS Experimental. Do not use for flight-related decisions.

Javascript required. Ce site nécessite javascript